Grants Pass, OR (97526)

9:40 AM PST on November 28, 2014 (GMT -0800)
NE Savage | Change Station
CLOSE
Current Station
Personal Weather Station
Location: Grants Pass, OR
Elevation: 1129 ft
Nearby Weather Stations

Elev 1129 ft 42.45 °N, 123.31 °W | Updated 1 minute ago

Overcast
Overcast
52.3 °F
Feels Like 52.3 °F
N
0.0
Wind Variable Wind from East
Gusts 10.0 mph

Today
High -- | Low -- °F
--% Chance of Precip.
Yesterday
High -- | Low -- °F
Precip. -- in
7:20 AM 4:42 PM
Waxing Crescent, 42% visible
Pressure 29.87 in
Visibility 9.0 miles
Clouds Mostly Cloudy 6000 ft
Overcast 7500 ft
Dew Point 48 °F
Humidity 86%
Rainfall 0.30 in
Snow Depth Not available.
UV 0 out of 12
Pollen .30 out of 12
Air Quality Not available.
Flu Activity Not available.
METAR KMFR 281653Z 15006KT 9SM -RA BKN060 OVC075 09/08 A2987 RMK AO2 SLP115 P0010 T00890083

More Conditions Fewer Conditions

Pressure 29.87 in
Visibility 9.0 miles
Clouds Mostly Cloudy 6000 ft
Overcast 7500 ft
Dew Point 48 °F
Humidity 86%
Rainfall 0.30 in
Snow Depth Not available.
UV 0 out of 12
Pollen .30 out of 12
Air Quality Not available.
Flu Activity Not available.
METAR KMFR 281653Z 15006KT 9SM -RA BKN060 OVC075 09/08 A2987 RMK AO2 SLP115 P0010 T00890083

More Conditions Fewer Conditions

10-Day Weather Forecast

Almanac

Astronomy

Nov. 28, 2014 Rise Set
Actual Time
Civil Twilight
Nautical Twilight
Astronomical Twilight
Moon
Length of Visible Light
Length of Day
Tomorrow will be .
, % of the Moon is Illuminated

Today's Extremes

State Highs State Lows

Community

WunderPhotos

Upload Photos

1,774,245 photos uploaded!

WunderBlogs® & News

Nearby

Air Quality

  Air Quality AQ Index Pollutant
Not available.

Snow Depth

Station Depth Elevation

Earthquake Activity

City Distance Mag. Time & Date
Minimum magnitude displayed is 2.5.

Coastal Water Temperatures

Place Temperature

Nearby Weather Stations